Startpagina
METAR-TAF:

METAR-TAF

Vliegvelden :

Kinshasa, Congo

Luchthaven N'djili

breedte: 04-23S, lengte: 015-26E, hoogte: 309 m

Actueel weer

Dit bericht is 3 uur en het 2 minuten geleden gemaakt, om 00:00 UTC
Weinig wind
Temperatuur 22°C
Vochtigheid 88%
Druk 1014 hPa
Zicht: 6000 m
Gebroken wolken op 1600 ft

METAR: FZAA 240000Z 00000KT 6000 BKN016 22/20 Q1014 NOSIG

Tijdstip: 04:02 (03:02 UTC)

Verwachting

Dit bericht is 4 uur en het 2 minuten geleden gemaakt, om 23:00 UTC
Verwachting geldig van 24 om 00 UTC tot 25 om 06 UTC
Wind 4 kt uit het zuidzuidwesten
Zicht: 6000 m
Gebroken wolken op 1800 ft
Wijzigt naar
van 24 om 04 UTC tot 24 om 06 UTC
Zicht: 3000 m
nevel
Van UTC
Wind 10 kt uit het westen
Zicht: 7000 m
Verspreide wolken op 2200 ft
Wijzigt naar
van 24 om 23 UTC tot 25 om 01 UTC
Wind kt uit het noorden

TAF: FZAA 232300Z 2400/2506 20004KT 6000 BKN018 BECMG 2404/2406 3000 BR 0VC014 FM 241100 27010KT 7000 SCT022 BECMG 2423/2501 00000KT NSC

Waarnemingen en weersverwachtingen van meer dan 4000 vliegvelden (METAR en TAF).

De beschikbare stations zijn de gele en rode punten op de kaart.

Ga met uw muis naar het station om de naam te zien.

Klik dan om waarnemingen en weersverwachtingen te zien.

kaart wijzigen: klik op de groene knoppen met een zwart kruis om in te zoomen, op de groene knop met een streepje om uit te zoomen of op de groene pijlen voor aangrenzende kaarten.


METAR-TAF: